Time;durP1;ratioP1;P1;durP2;ratioP2;P2;SDS_P1;SDS_P2;PMS_P1;PMS_P2;Temp;Humidity;BMP_temperature;BMP_pressure;BME280_temperature;BME280_humidity;BME280_pressure;Samples;Min_cycle;Max_cycle;Signal;HPM_P1;HPM_P2
2022/05/04 00:00:50;;;;;;;8.63;6.47;;;;;9.00;94047.00;;;;7394828;19;20137;-75
2022/05/04 00:03:24;;;;;;;7.50;6.80;;;;;9.10;94037.00;;;;7396394;19;20150;-76
2022/05/04 00:05:51;;;;;;;7.53;6.67;;;;;9.10;94041.00;;;;7397258;19;20140;-74
2022/05/04 00:08:19;;;;;;;7.97;7.10;;;;;9.00;94035.00;;;;7396087;19;20623;-75
2022/05/04 00:10:53;;;;;;;8.33;7.30;;;;;8.90;94032.00;;;;7393407;19;20154;-74
2022/05/04 00:13:21;;;;;;;7.70;6.90;;;;;8.90;94028.00;;;;7396630;19;20141;-75
2022/05/04 00:16:08;;;;;;;12.77;7.23;;;;;8.90;94025.00;;;;7393628;19;20132;-74
2022/05/04 00:18:55;;;;;;;10.60;7.00;;;;;9.00;94031.00;;;;7393967;19;20176;-75
2022/05/04 00:21:30;;;;;;;12.93;7.53;;;;;9.10;94026.00;;;;7394190;19;20588;-75
2022/05/04 00:24:04;;;;;;;9.37;7.40;;;;;8.90;94031.00;;;;7396057;19;20140;-73
2022/05/04 00:26:32;;;;;;;8.53;7.30;;;;;8.70;94027.00;;;;7397119;19;20125;-74
2022/05/04 00:28:59;;;;;;;11.77;7.67;;;;;8.70;94029.00;;;;7394872;19;20141;-75
2022/05/04 00:31:34;;;;;;;7.53;6.80;;;;;8.70;94024.00;;;;7395275;19;20167;-76
2022/05/04 00:34:01;;;;;;;8.57;6.83;;;;;8.50;94034.00;;;;7396715;19;20145;-75
2022/05/04 00:36:29;;;;;;;8.70;7.30;;;;;8.40;94033.00;;;;7396076;19;20125;-76
2022/05/04 00:39:03;;;;;;;9.07;7.30;;;;;8.40;94035.00;;;;7396307;19;20982;-75
2022/05/04 00:41:30;;;;;;;11.27;7.57;;;;;8.50;94020.00;;;;7394314;19;20208;-74
2022/05/04 00:43:58;;;;;;;8.77;7.40;;;;;8.50;94028.00;;;;7395089;19;20575;-75
2022/05/04 00:46:32;;;;;;;8.90;7.37;;;;;8.70;94023.00;;;;7394484;19;20225;-75
2022/05/04 00:48:59;;;;;;;9.10;7.60;;;;;8.80;94028.00;;;;7395005;19;20141;-74
2022/05/04 00:51:28;;;;;;;8.67;7.80;;;;;8.80;94017.00;;;;7395508;19;20188;-74
2022/05/04 00:54:02;;;;;;;7.70;6.90;;;;;8.70;94019.00;;;;7394560;19;20135;-75
2022/05/04 00:56:30;;;;;;;8.07;7.17;;;;;8.60;94020.00;;;;7394450;19;20146;-75
2022/05/04 00:58:58;;;;;;;8.60;7.70;;;;;8.60;94017.00;;;;7393787;19;20129;-76
2022/05/04 01:01:32;;;;;;;12.43;7.70;;;;;8.60;94013.00;;;;7392988;19;20600;-75
2022/05/04 01:04:00;;;;;;;7.80;7.00;;;;;8.60;94026.00;;;;7394009;19;20140;-74
2022/05/04 01:06:28;;;;;;;8.63;7.23;;;;;8.70;94010.00;;;;7390371;19;20137;-76
2022/05/04 01:09:02;;;;;;;8.10;7.30;;;;;8.70;94021.00;;;;7392606;19;20205;-76
2022/05/04 01:11:29;;;;;;;7.93;7.17;;;;;8.70;94024.00;;;;7392687;19;20175;-75
2022/05/04 01:14:08;;;;;;;11.83;7.37;;;;;8.80;94021.00;;;;7393654;19;20145;-75
2022/05/04 01:16:45;;;;;;;7.87;7.07;;;;;8.70;94017.00;;;;7394705;19;20125;-76
2022/05/04 01:19:19;;;;;;;11.60;6.97;;;;;8.50;94020.00;;;;7392630;19;20643;-76
2022/05/04 01:21:54;;;;;;;9.00;7.47;;;;;8.50;94029.00;;;;7393382;19;20152;-74
2022/05/04 01:24:21;;;;;;;9.50;7.73;;;;;8.50;94027.00;;;;7394689;19;20132;-75
2022/05/04 01:26:49;;;;;;;8.93;7.40;;;;;8.60;94028.00;;;;7393472;19;20135;-75
2022/05/04 01:29:23;;;;;;;10.20;7.87;;;;;8.60;94034.00;;;;7392208;19;20877;-76
2022/05/04 01:31:50;;;;;;;9.77;7.63;;;;;8.70;94025.00;;;;7393281;19;20511;-75
2022/05/04 01:34:20;;;;;;;10.13;7.50;;;;;8.60;94032.00;;;;7394244;19;20208;-74
2022/05/04 01:36:54;;;;;;;9.97;7.67;;;;;8.50;94028.00;;;;7391899;19;20161;-76
2022/05/04 01:39:21;;;;;;;7.67;6.97;;;;;8.50;94031.00;;;;7394417;19;20152;-75
2022/05/04 01:42:05;;;;;;;8.37;7.00;;;;;8.40;94026.00;;;;7392091;19;20129;-75
2022/05/04 01:44:40;;;;;;;8.23;7.27;;;;;8.30;94028.00;;;;7393123;19;20146;-75
2022/05/04 01:47:08;;;;;;;7.90;7.03;;;;;8.40;94031.00;;;;7393003;19;20877;-75
2022/05/04 01:49:36;;;;;;;9.80;7.83;;;;;8.40;94021.00;;;;7393590;19;20125;-76
2022/05/04 01:52:10;;;;;;;10.93;7.27;;;;;8.30;94022.00;;;;7394251;19;20148;-76
2022/05/04 01:54:37;;;;;;;8.50;7.50;;;;;8.20;94027.00;;;;7392321;19;20757;-74
2022/05/04 01:57:05;;;;;;;8.63;7.30;;;;;8.20;94023.00;;;;7393231;19;20144;-75
2022/05/04 01:59:39;;;;;;;8.47;7.67;;;;;8.30;94023.00;;;;7392649;19;20144;-76
2022/05/04 02:02:07;;;;;;;10.90;7.53;;;;;8.40;94017.00;;;;7390746;19;20137;-76
2022/05/04 02:04:37;;;;;;;10.73;7.57;;;;;8.30;94019.00;;;;7392521;19;20144;-76
2022/05/04 02:07:11;;;;;;;9.83;7.43;;;;;8.40;94024.00;;;;7393580;19;20145;-76
2022/05/04 02:09:40;;;;;;;11.13;8.17;;;;;8.40;94024.00;;;;7389953;19;20137;-74
2022/05/04 02:12:08;;;;;;;9.67;7.53;;;;;8.50;94020.00;;;;7391472;19;20137;-76
2022/05/04 02:14:42;;;;;;;10.10;8.20;;;;;8.40;94024.00;;;;7392457;19;20575;-76
2022/05/04 02:17:09;;;;;;;9.17;7.57;;;;;8.40;94017.00;;;;7392098;19;20141;-74
2022/05/04 02:19:37;;;;;;;16.80;8.77;;;;;8.40;94011.00;;;;7389604;19;20620;-75
2022/05/04 02:22:11;;;;;;;9.03;8.13;;;;;8.40;94015.00;;;;7390517;19;20137;-76
2022/05/04 02:24:38;;;;;;;9.10;8.07;;;;;8.50;94009.00;;;;7392624;19;20450;-75
2022/05/04 02:27:06;;;;;;;8.10;7.30;;;;;8.30;94016.00;;;;7391163;19;20137;-75
2022/05/04 02:29:40;;;;;;;10.20;7.97;;;;;8.30;94008.00;;;;7391276;19;20529;-75
2022/05/04 02:32:08;;;;;;;9.67;7.70;;;;;8.40;94010.00;;;;7392044;19;20148;-75
2022/05/04 02:37:54;;;;;;;9.30;7.93;;;;;8.30;94013.00;;;;7393951;19;20145;-74
2022/05/04 02:40:16;;;;;;;9.07;7.80;;;;;8.30;94014.00;;;;7391103;19;20145;-74
2022/05/04 02:42:50;;;;;;;9.43;8.17;;;;;8.40;94013.00;;;;7390239;19;20141;-75
2022/05/04 02:45:17;;;;;;;9.40;7.83;;;;;8.30;94011.00;;;;7391084;19;20132;-76
2022/05/04 02:47:45;;;;;;;9.10;7.90;;;;;8.30;94004.00;;;;7389347;19;20157;-76
2022/05/04 02:50:19;;;;;;;10.33;8.53;;;;;8.40;94008.00;;;;7390761;19;20147;-75
2022/05/04 02:52:47;;;;;;;8.90;8.03;;;;;8.50;94011.00;;;;7390651;19;20188;-75
2022/05/04 02:55:14;;;;;;;11.33;9.17;;;;;8.30;94008.00;;;;7391370;19;20129;-76
2022/05/04 02:57:49;;;;;;;9.20;8.30;;;;;8.30;94003.00;;;;7391463;19;20140;-75
2022/05/04 03:00:17;;;;;;;9.13;8.23;;;;;8.30;94005.00;;;;7389940;19;20165;-75
2022/05/04 03:02:45;;;;;;;9.07;8.10;;;;;8.20;93999.00;;;;7389616;19;20137;-75
2022/05/04 03:05:19;;;;;;;8.73;7.80;;;;;8.10;94004.00;;;;7391602;19;20611;-76
2022/05/04 03:07:47;;;;;;;10.30;7.73;;;;;8.10;94013.00;;;;7391925;19;20643;-75
2022/05/04 03:10:14;;;;;;;9.03;8.10;;;;;8.10;94011.00;;;;7388898;19;20164;-76
2022/05/04 03:12:49;;;;;;;11.10;8.10;;;;;8.20;94000.00;;;;7390724;19;20155;-76
2022/05/04 03:15:17;;;;;;;8.43;7.20;;;;;8.20;94009.00;;;;7390541;19;20647;-74
2022/05/04 03:17:44;;;;;;;8.50;7.60;;;;;8.30;94006.00;;;;7389434;19;20145;-75
2022/05/04 03:20:25;;;;;;;8.47;7.67;;;;;8.20;94007.00;;;;7386511;19;20248;-75
2022/05/04 03:22:53;;;;;;;7.87;6.80;;;;;8.20;94003.00;;;;7389617;19;20148;-76
2022/05/04 03:25:27;;;;;;;8.20;6.87;;;;;8.20;94005.00;;;;7390838;19;20597;-75
2022/05/04 03:27:55;;;;;;;7.07;6.20;;;;;8.30;93995.00;;;;7391692;19;20141;-75
2022/05/04 03:30:22;;;;;;;5.60;5.10;;;;;8.60;93996.00;;;;7389848;19;20154;-76
2022/05/04 03:32:57;;;;;;;8.77;4.77;;;;;8.80;93994.00;;;;7390643;19;20140;-75
2022/05/04 03:35:25;;;;;;;5.00;4.50;;;;;8.80;93988.00;;;;7389701;19;20515;-73
2022/05/04 03:37:53;;;;;;;4.40;4.00;;;;;9.30;93990.00;;;;7389317;19;20169;-74
2022/05/04 03:40:28;;;;;;;5.67;3.97;;;;;9.50;93985.00;;;;7390270;19;20204;-74
2022/05/04 03:42:56;;;;;;;4.03;3.57;;;;;9.50;93981.00;;;;7388120;19;20735;-73
2022/05/04 03:45:23;;;;;;;4.23;3.63;;;;;9.50;93984.00;;;;7388759;19;20145;-75
2022/05/04 03:47:58;;;;;;;4.23;3.50;;;;;9.80;93983.00;;;;7390938;19;20144;-75
2022/05/04 03:50:26;;;;;;;5.13;3.50;;;;;9.90;93980.00;;;;7389958;19;20156;-75
2022/05/04 03:52:53;;;;;;;3.47;3.17;;;;;9.80;93987.00;;;;7389218;19;20162;-74
2022/05/04 03:55:28;;;;;;;6.17;3.17;;;;;9.80;93978.00;;;;7390770;19;20587;-73
2022/05/04 03:57:55;;;;;;;5.23;3.90;;;;;9.60;93992.00;;;;7391443;19;20124;-74
2022/05/04 04:00:23;;;;;;;3.87;3.47;;;;;9.60;93988.00;;;;7395554;19;20914;-74
2022/05/04 04:02:57;;;;;;;4.70;3.40;;;;;9.50;93988.00;;;;7394370;19;20145;-75
2022/05/04 04:05:25;;;;;;;5.90;3.40;;;;;9.40;93994.00;;;;7398160;19;20128;-75
2022/05/04 04:07:52;;;;;;;4.00;3.60;;;;;9.60;93990.00;;;;7398182;19;20146;-75
2022/05/04 04:10:26;;;;;;;4.87;3.70;;;;;9.60;93997.00;;;;7394257;19;20164;-75
2022/05/04 04:12:53;;;;;;;4.00;3.47;;;;;9.70;93997.00;;;;7395473;19;20144;-75
2022/05/04 04:15:21;;;;;;;4.63;3.70;;;;;9.60;93991.00;;;;7396306;19;20216;-75
2022/05/04 04:18:08;;;;;;;3.60;3.30;;;;;9.60;94003.00;;;;7394376;19;20163;-76
2022/05/04 04:23:37;;;;;;;3.63;3.10;;;;;9.80;93992.00;;;;7394939;19;20121;-72
2022/05/04 04:26:11;;;;;;;6.03;3.00;;;;;9.90;93995.00;;;;7402845;19;20152;-74
2022/05/04 04:28:45;;;;;;;3.63;3.00;;;;;9.80;93990.00;;;;7403122;19;20148;-73
2022/05/04 04:31:13;;;;;;;3.47;3.13;;;;;9.80;93995.00;;;;7402934;19;20534;-75
2022/05/04 04:33:40;;;;;;;4.93;2.90;;;;;9.80;93995.00;;;;7401108;19;20136;-73
2022/05/04 04:36:15;;;;;;;5.37;3.47;;;;;9.70;93994.00;;;;7402465;19;20615;-72
2022/05/04 04:38:43;;;;;;;3.50;3.03;;;;;9.70;94000.00;;;;7401434;19;20548;-74
2022/05/04 04:41:11;;;;;;;5.43;3.37;;;;;9.70;93996.00;;;;7401491;19;20169;-74
2022/05/04 04:43:45;;;;;;;3.27;2.97;;;;;9.70;94006.00;;;;7400449;19;20615;-73
2022/05/04 04:46:13;;;;;;;3.73;2.80;;;;;9.80;94004.00;;;;7401325;19;20576;-74
2022/05/04 04:48:41;;;;;;;4.10;2.40;;;;;9.90;94011.00;;;;7401770;19;20454;-74
2022/05/04 04:51:15;;;;;;;8.57;2.80;;;;;9.90;94009.00;;;;7399923;19;20504;-74
2022/05/04 04:53:44;;;;;;;4.37;2.60;;;;;10.00;94006.00;;;;7403706;19;20136;-76
2022/05/04 04:56:13;;;;;;;5.07;2.73;;;;;9.90;94007.00;;;;7401237;19;20128;-73
2022/05/04 04:58:47;;;;;;;2.60;2.40;;;;;10.00;94008.00;;;;7400333;19;20140;-74
2022/05/04 05:01:15;;;;;;;3.37;2.67;;;;;10.10;94008.00;;;;7399697;19;20157;-74
2022/05/04 05:03:43;;;;;;;2.53;2.33;;;;;10.00;94012.00;;;;7399222;19;20624;-74
2022/05/04 05:06:19;;;;;;;5.70;2.47;;;;;10.00;94004.00;;;;7400885;19;20480;-73
2022/05/04 05:08:48;;;;;;;3.10;2.20;;;;;10.20;94007.00;;;;7399657;19;20150;-74
2022/05/04 05:11:16;;;;;;;2.50;2.00;;;;;10.40;94007.00;;;;7396773;19;20396;-75
2022/05/04 05:16:36;;;;;;;2.38;2.00;;;;;10.70;94002.00;;;;7400073;19;20169;-75
2022/05/04 05:19:25;;;;;;;2.90;2.08;;;;;11.00;94004.00;;;;7399375;19;20148;-75
2022/05/04 05:21:59;;;;;;;3.78;2.13;;;;;11.00;94006.00;;;;7401704;19;20151;-74
2022/05/04 05:24:33;;;;;;;2.55;1.95;;;;;11.20;94004.00;;;;7400505;19;20543;-74
2022/05/04 05:27:01;;;;;;;2.08;1.85;;;;;11.50;94006.00;;;;7398629;19;20147;-71
2022/05/04 05:29:29;;;;;;;2.03;1.83;;;;;11.50;94009.00;;;;7399384;19;20133;-76
2022/05/04 05:32:03;;;;;;;2.40;2.20;;;;;11.70;94011.00;;;;7404445;19;20149;-74
2022/05/04 05:34:33;;;;;;;4.13;2.40;;;;;11.70;94014.00;;;;7398786;19;20150;-74
2022/05/04 05:37:02;;;;;;;4.55;2.35;;;;;11.70;94017.00;;;;7399171;19;20141;-74
2022/05/04 05:39:36;;;;;;;2.67;2.22;;;;;11.90;94014.00;;;;7399990;19;20510;-74
2022/05/04 05:42:04;;;;;;;2.70;2.17;;;;;12.10;94015.00;;;;7398857;19;20596;-74
2022/05/04 05:44:32;;;;;;;2.50;2.30;;;;;12.30;94017.00;;;;7398009;19;20648;-73
2022/05/04 05:47:10;;;;;;;3.55;2.25;;;;;12.50;94017.00;;;;7398022;19;20125;-74
2022/05/04 05:49:38;;;;;;;4.43;2.58;;;;;12.40;94022.00;;;;7399144;19;20618;-75
2022/05/04 05:52:09;;;;;;;3.78;2.40;;;;;12.50;94016.00;;;;7402498;19;20136;-75
2022/05/04 05:54:44;;;;;;;6.63;2.55;;;;;12.80;94021.00;;;;7398302;19;20139;-74
2022/05/04 05:57:12;;;;;;;4.32;2.30;;;;;12.70;94024.00;;;;7396948;19;20177;-75
2022/05/04 05:59:40;;;;;;;3.20;2.40;;;;;12.90;94028.00;;;;7399952;19;20137;-74
2022/05/04 06:02:14;;;;;;;2.83;2.42;;;;;13.10;94029.00;;;;7396672;19;20151;-75
2022/05/04 06:04:42;;;;;;;3.78;2.30;;;;;13.50;94026.00;;;;7396388;19;20137;-73
2022/05/04 06:07:11;;;;;;;3.90;2.50;;;;;13.40;94034.00;;;;7395457;19;20137;-74
2022/05/04 06:09:45;;;;;;;2.80;2.50;;;;;13.30;94031.00;;;;7396023;19;20168;-75
2022/05/04 06:12:13;;;;;;;3.13;2.33;;;;;13.30;94024.00;;;;7396602;19;20203;-75
2022/05/04 06:14:41;;;;;;;2.78;2.38;;;;;13.30;94035.00;;;;7395740;19;20137;-74
2022/05/04 06:17:15;;;;;;;3.65;2.20;;;;;13.50;94030.00;;;;7396372;19;20144;-75
2022/05/04 06:19:56;;;;;;;3.88;2.40;;;;;13.60;94028.00;;;;7394582;19;20231;-75
2022/05/04 06:22:32;;;;;;;2.40;2.20;;;;;13.50;94030.00;;;;7394748;19;20151;-76
2022/05/04 06:25:00;;;;;;;2.85;2.15;;;;;13.40;94031.00;;;;7395896;19;20124;-75
2022/05/04 06:27:30;;;;;;;2.42;2.00;;;;;13.40;94033.00;;;;7397299;19;20149;-75
2022/05/04 06:35:45;;;;;;;2.70;2.30;;;;;13.20;94038.00;;;;7397634;19;20163;-75
2022/05/04 06:38:13;;;;;;;4.45;2.55;;;;;13.20;94042.00;;;;7395760;19;20129;-75
2022/05/04 06:40:41;;;;;;;2.97;2.50;;;;;13.20;94038.00;;;;7396340;19;20137;-75
2022/05/04 06:43:15;;;;;;;3.13;2.58;;;;;13.00;94040.00;;;;7394519;19;20151;-75
2022/05/04 06:45:43;;;;;;;3.72;2.50;;;;;13.00;94045.00;;;;7398373;19;20140;-74
2022/05/04 06:48:11;;;;;;;3.67;2.67;;;;;13.10;94048.00;;;;7394534;19;20149;-76
2022/05/04 06:50:45;;;;;;;6.28;2.45;;;;;13.20;94050.00;;;;7395727;19;20140;-76
2022/05/04 06:53:13;;;;;;;3.22;2.50;;;;;13.50;94044.00;;;;7392838;19;20133;-74
2022/05/04 06:55:41;;;;;;;3.13;2.58;;;;;13.70;94049.00;;;;7391251;19;20133;-74
2022/05/04 06:58:21;;;;;;;3.05;2.75;;;;;14.10;94064.00;;;;7391346;19;20607;-75
2022/05/04 07:00:52;;;;;;;3.40;2.63;;;;;14.10;94046.00;;;;7395182;19;20483;-74
2022/05/04 07:03:26;;;;;;;3.50;2.80;;;;;15.00;94047.00;;;;7390706;19;20635;-74
2022/05/04 07:05:54;;;;;;;3.30;2.50;;;;;16.00;94045.00;;;;7391490;19;20137;-74
2022/05/04 07:08:22;;;;;;;3.65;3.00;;;;;16.90;94045.00;;;;7391135;19;20544;-73
2022/05/04 07:10:56;;;;;;;5.78;2.92;;;;;17.30;94052.00;;;;7390789;19;20184;-75
2022/05/04 07:13:24;;;;;;;9.30;3.97;;;;;17.30;94052.00;;;;7393795;19;20143;-76
2022/05/04 07:15:53;;;;;;;6.30;4.22;;;;;17.30;94053.00;;;;7392354;19;20152;-74
2022/05/04 07:18:40;;;;;;;8.13;4.10;;;;;17.20;94055.00;;;;7392643;19;20147;-75
2022/05/04 07:21:15;;;;;;;6.38;4.85;;;;;17.40;94055.00;;;;7394372;19;20148;-74
2022/05/04 07:23:49;;;;;;;4.75;4.30;;;;;17.40;94054.00;;;;7389382;19;20148;-74
2022/05/04 07:26:17;;;;;;;7.38;3.78;;;;;17.60;94062.00;;;;7394677;19;20196;-75
2022/05/04 07:28:45;;;;;;;3.85;3.45;;;;;17.40;94058.00;;;;7393997;19;20508;-74
2022/05/04 07:31:20;;;;;;;6.70;3.08;;;;;17.40;94058.00;;;;7393895;19;20761;-75
2022/05/04 07:33:48;;;;;;;3.85;3.25;;;;;17.70;94056.00;;;;7396440;19;20489;-74
2022/05/04 07:36:16;;;;;;;3.10;2.80;;;;;18.00;94061.00;;;;7402693;19;20143;-74
2022/05/04 07:38:51;;;;;;;3.75;3.28;;;;;18.30;94055.00;;;;7405911;19;20152;-74
2022/05/04 07:44:12;;;;;;;4.50;2.67;;;;;18.80;94053.00;;;;7400465;19;20117;-74
2022/05/04 07:46:42;;;;;;;3.65;2.92;;;;;19.00;94044.00;;;;7402850;19;20125;-76
2022/05/04 07:49:10;;;;;;;3.65;3.03;;;;;19.50;94054.00;;;;7402041;19;20612;-75
2022/05/04 07:51:46;;;;;;;5.18;4.68;;;;;18.80;94059.00;;;;7403407;19;20592;-74
2022/05/04 07:54:15;;;;;;;4.10;3.05;;;;;19.10;94054.00;;;;7406370;19;20509;-75
2022/05/04 07:56:43;;;;;;;3.47;3.10;;;;;18.90;94061.00;;;;7403533;19;20220;-73
2022/05/04 07:59:17;;;;;;;3.88;2.90;;;;;18.90;94064.00;;;;7402976;19;20140;-75
2022/05/04 08:04:44;;;;;;;3.80;2.88;;;;;17.50;94071.00;;;;7400694;19;20117;-75
2022/05/04 08:07:12;;;;;;;3.75;2.88;;;;;17.90;94078.00;;;;7402387;19;20595;-74
2022/05/04 08:09:46;;;;;;;2.83;2.47;;;;;17.60;94074.00;;;;7400344;19;20164;-73
2022/05/04 08:12:14;;;;;;;2.97;2.67;;;;;17.30;94071.00;;;;7400783;19;20133;-74
2022/05/04 08:14:42;;;;;;;3.35;2.90;;;;;17.00;94071.00;;;;7400931;19;20146;-74
2022/05/04 08:17:16;;;;;;;4.07;3.47;;;;;17.40;94080.00;;;;7401945;19;20135;-74
2022/05/04 08:19:58;;;;;;;4.88;3.40;;;;;18.00;94087.00;;;;7398420;19;20160;-73
2022/05/04 08:22:32;;;;;;;4.32;3.28;;;;;17.80;94083.00;;;;7400331;19;20588;-75
2022/05/04 08:25:00;;;;;;;2.80;2.60;;;;;17.70;94097.00;;;;7399663;19;20491;-73
2022/05/04 08:27:28;;;;;;;5.20;3.30;;;;;17.60;94094.00;;;;7400670;19;20144;-75
2022/05/04 08:30:03;;;;;;;3.47;2.67;;;;;17.80;94090.00;;;;7400292;19;20472;-73
2022/05/04 08:32:31;;;;;;;5.70;2.85;;;;;17.60;94103.00;;;;7403302;19;20608;-73
2022/05/04 08:35:00;;;;;;;6.15;3.35;;;;;17.60;94097.00;;;;7399302;19;20912;-72
2022/05/04 08:37:34;;;;;;;6.03;3.33;;;;;17.80;94087.00;;;;7399592;19;20132;-73
2022/05/04 08:40:02;;;;;;;5.25;3.35;;;;;17.60;94091.00;;;;7398521;19;20481;-74
2022/05/04 08:42:30;;;;;;;5.47;3.30;;;;;17.60;94088.00;;;;7403509;19;20148;-74
2022/05/04 08:45:06;;;;;;;3.35;3.05;;;;;18.10;94091.00;;;;7399346;19;20149;-74
2022/05/04 08:47:36;;;;;;;4.18;3.53;;;;;18.20;94086.00;;;;7404614;19;20161;-75
2022/05/04 08:50:15;;;;;;;3.50;3.20;;;;;18.80;94092.00;;;;7400827;19;20132;-74
2022/05/04 08:52:56;;;;;;;6.22;3.42;;;;;18.90;94083.00;;;;7401387;19;20173;-74
2022/05/04 08:55:25;;;;;;;4.22;3.50;;;;;19.00;94082.00;;;;7399012;19;20143;-74
2022/05/04 08:57:59;;;;;;;5.47;3.22;;;;;20.00;94076.00;;;;7399496;19;20465;-74
2022/05/04 09:00:27;;;;;;;4.40;3.53;;;;;20.90;94087.00;;;;7399370;19;20212;-75
2022/05/04 09:02:55;;;;;;;5.93;3.40;;;;;20.70;94073.00;;;;7399085;19;20498;-73
2022/05/04 09:05:29;;;;;;;4.18;3.13;;;;;21.60;94071.00;;;;7398985;19;20128;-74
2022/05/04 09:07:58;;;;;;;4.47;3.28;;;;;22.40;94058.00;;;;7398307;19;20596;-73
2022/05/04 09:10:31;;;;;;;3.65;3.22;;;;;23.90;94058.00;;;;7398245;19;20182;-75
2022/05/04 09:13:06;;;;;;;4.53;2.78;;;;;24.50;94057.00;;;;7398973;19;20192;-73
2022/05/04 09:15:36;;;;;;;3.97;2.88;;;;;23.30;94064.00;;;;7400224;19;20442;-73
2022/05/04 09:18:13;;;;;;;5.75;3.20;;;;;22.10;94079.00;;;;7398444;19;20136;-74
2022/05/04 09:20:55;;;;;;;4.28;3.50;;;;;21.90;94070.00;;;;7395722;19;20173;-76
2022/05/04 09:23:29;;;;;;;6.05;3.10;;;;;21.70;94072.00;;;;7397362;19;20141;-74
2022/05/04 09:26:07;;;;;;;6.40;3.75;;;;;20.70;94090.00;;;;7398537;19;20172;-74
2022/05/04 09:28:35;;;;;;;6.38;3.58;;;;;20.00;94095.00;;;;7395128;19;20486;-74
2022/05/04 09:31:07;;;;;;;5.00;3.42;;;;;19.60;94095.00;;;;7397270;19;20659;-75
2022/05/04 09:33:42;;;;;;;5.10;3.10;;;;;20.20;94095.00;;;;7396726;19;20892;-74
2022/05/04 09:36:14;;;;;;;4.43;3.42;;;;;20.00;94101.00;;;;7398423;19;20145;-75
2022/05/04 09:47:20;;;;;;;5.20;3.50;;;;;18.40;94101.00;;;;7398448;19;20208;-75
2022/05/04 09:50:00;;;;;;;4.55;3.80;;;;;18.40;94110.00;;;;7395995;19;20129;-74
2022/05/04 09:52:49;;;;;;;6.47;4.18;;;;;18.20;94105.00;;;;7397069;19;20459;-74
2022/05/04 09:55:24;;;;;;;4.28;3.88;;;;;17.60;94111.00;;;;7399701;19;20140;-74
2022/05/04 09:57:58;;;;;;;4.53;4.10;;;;;17.80;94112.00;;;;7395152;19;20158;-76
2022/05/04 10:00:27;;;;;;;7.60;4.20;;;;;17.00;94121.00;;;;7397039;19;20140;-75
2022/05/04 10:02:57;;;;;;;7.05;3.60;;;;;16.80;94113.00;;;;7396802;19;20505;-74
2022/05/04 10:05:33;;;;;;;6.50;4.38;;;;;17.30;94086.00;;;;7398610;19;20644;-73
2022/05/04 10:08:03;;;;;;;5.90;4.15;;;;;17.40;94101.00;;;;7400398;19;20145;-75
2022/05/04 10:10:39;;;;;;;5.35;4.13;;;;;17.40;94101.00;;;;7395360;19;20164;-74
2022/05/04 10:13:11;;;;;;;8.25;4.63;;;;;17.60;94110.00;;;;7396152;19;20146;-75
2022/05/04 10:15:47;;;;;;;5.22;4.72;;;;;17.30;94111.00;;;;7396585;19;20124;-74
2022/05/04 10:18:24;;;;;;;5.50;5.00;;;;;17.00;94116.00;;;;7400055;19;20164;-74
2022/05/04 10:21:17;;;;;;;7.15;5.35;;;;;16.70;94118.00;;;;7396800;19;20180;-73
2022/05/04 10:23:48;;;;;;;9.45;5.88;;;;;16.30;94121.00;;;;7398378;19;20141;-72
2022/05/04 10:26:36;;;;;;;11.80;6.40;;;;;15.40;94134.00;;;;7394097;19;20498;-74
2022/05/04 10:32:38;;;;;;;15.13;6.78;;;;;13.10;94145.00;;;;7400900;19;20141;-77
2022/05/04 10:35:22;;;;;;;12.55;5.78;;;;;12.70;94154.00;;;;7396101;19;20139;-79
2022/05/04 10:37:59;;;;;;;12.40;6.10;;;;;12.50;94157.00;;;;7395650;19;20145;-77
2022/05/04 10:41:00;;;;;;;7.88;6.18;;;;;12.60;94159.00;;;;7396072;19;20144;-78
2022/05/04 10:43:51;;;;;;;15.90;7.28;;;;;12.00;94137.00;;;;7402109;19;20453;-80
2022/05/04 10:46:21;;;;;;;6.70;5.20;;;;;11.80;94130.00;;;;7398927;19;20132;-81
2022/05/04 10:49:05;;;;;;;6.95;4.43;;;;;11.60;94138.00;;;;7396766;19;20463;-81
2022/05/04 10:51:38;;;;;;;10.70;5.93;;;;;11.70;94134.00;;;;7396470;19;20137;-81
2022/05/04 10:54:17;;;;;;;15.15;6.15;;;;;12.00;94137.00;;;;7393095;19;20146;-81
2022/05/04 10:56:54;;;;;;;12.82;6.55;;;;;12.60;94139.00;;;;7392817;19;20477;-81
2022/05/04 10:59:31;;;;;;;10.15;5.63;;;;;13.10;94124.00;;;;7391408;19;20794;-81
2022/05/04 11:02:04;;;;;;;9.30;4.97;;;;;13.60;94124.00;;;;7391689;19;20734;-80
2022/05/04 11:04:41;;;;;;;7.45;4.90;;;;;13.70;94119.00;;;;7389957;19;20211;-79
2022/05/04 11:07:09;;;;;;;7.65;4.70;;;;;13.50;94116.00;;;;7391464;19;20137;-78
2022/05/04 11:09:43;;;;;;;9.35;5.10;;;;;13.70;94115.00;;;;7397121;19;20179;-78
2022/05/04 11:12:25;;;;;;;5.47;4.55;;;;;14.40;94109.00;;;;7399056;19;20117;-78
2022/05/04 11:14:53;;;;;;;8.82;4.85;;;;;14.80;94102.00;;;;7397883;19;20137;-78
2022/05/04 11:17:33;;;;;;;13.57;4.93;;;;;15.20;94098.00;;;;7398785;19;20132;-77
2022/05/04 11:20:18;;;;;;;7.03;5.03;;;;;15.10;94092.00;;;;7399201;19;20520;-77
2022/05/04 11:22:54;;;;;;;8.27;5.35;;;;;15.70;94082.00;;;;7401672;19;20599;-77
2022/05/04 11:25:22;;;;;;;8.02;5.78;;;;;16.10;94074.00;;;;7399570;19;20141;-76
2022/05/04 11:27:49;;;;;;;8.55;4.70;;;;;16.70;94082.00;;;;7397684;19;20147;-77
2022/05/04 11:30:26;;;;;;;4.80;4.40;;;;;17.10;94073.00;;;;7404470;19;20182;-76
2022/05/04 11:32:54;;;;;;;6.95;5.38;;;;;17.20;94076.00;;;;7401547;19;20596;-77
2022/05/04 11:35:25;;;;;;;7.78;5.70;;;;;17.10;94077.00;;;;7404530;19;20493;-77
2022/05/04 11:37:59;;;;;;;6.65;5.68;;;;;16.90;94070.00;;;;7403347;19;20117;-75
2022/05/04 11:40:27;;;;;;;7.03;5.93;;;;;17.60;94068.00;;;;7405623;19;20639;-76
2022/05/04 11:42:55;;;;;;;8.93;6.70;;;;;17.40;94068.00;;;;7400857;19;20141;-76
2022/05/04 11:45:29;;;;;;;7.47;6.60;;;;;18.00;94065.00;;;;7399681;19;20168;-78
2022/05/04 11:47:57;;;;;;;7.82;7.13;;;;;17.90;94065.00;;;;7401760;19;20173;-79
2022/05/04 11:50:25;;;;;;;10.43;8.25;;;;;17.40;94057.00;;;;7403080;19;20607;-77
2022/05/04 11:53:00;;;;;;;10.00;8.27;;;;;17.00;94060.00;;;;7402568;19;20606;-76
2022/05/04 11:55:29;;;;;;;9.93;7.78;;;;;17.50;94053.00;;;;7404356;19;20793;-76
2022/05/04 11:57:59;;;;;;;10.85;7.60;;;;;18.50;94051.00;;;;7402526;19;20131;-75
2022/05/04 12:00:33;;;;;;;8.20;7.40;;;;;18.40;94046.00;;;;7404927;19;20522;-75
2022/05/04 12:03:03;;;;;;;8.43;7.28;;;;;19.70;94044.00;;;;7401383;19;20572;-75
2022/05/04 12:05:33;;;;;;;8.27;6.13;;;;;20.60;94042.00;;;;7402132;19;20162;-78
2022/05/04 12:08:08;;;;;;;8.75;6.68;;;;;20.10;94036.00;;;;7401924;19;20144;-78
2022/05/04 12:10:36;;;;;;;8.52;6.57;;;;;19.80;94042.00;;;;7402750;19;20497;-78
2022/05/04 12:13:05;;;;;;;8.07;5.70;;;;;20.40;94035.00;;;;7401091;19;20799;-77
2022/05/04 12:15:40;;;;;;;7.10;5.55;;;;;20.80;94037.00;;;;7400761;19;20156;-78
2022/05/04 12:18:10;;;;;;;5.10;4.60;;;;;21.80;94017.00;;;;7402585;19;20133;-76
2022/05/04 12:20:38;;;;;;;5.70;4.78;;;;;22.10;94011.00;;;;7397985;19;20197;-79
2022/05/04 12:23:13;;;;;;;9.10;5.22;;;;;23.00;94024.00;;;;7400213;19;20200;-78
2022/05/04 12:25:44;;;;;;;7.45;5.03;;;;;23.30;94020.00;;;;7398089;19;20216;-77
2022/05/04 12:28:12;;;;;;;4.75;4.05;;;;;23.80;94023.00;;;;7398395;19;20129;-77
2022/05/04 12:33:37;;;;;;;5.80;4.75;;;;;24.60;94013.00;;;;7400386;19;20592;-76
2022/05/04 12:36:12;;;;;;;6.50;4.90;;;;;24.50;94030.00;;;;7399944;19;20155;-76
2022/05/04 12:38:46;;;;;;;5.57;4.70;;;;;22.10;94040.00;;;;7399963;19;20535;-75
2022/05/04 12:41:24;;;;;;;6.07;4.30;;;;;21.20;94042.00;;;;7399394;19;20133;-76
2022/05/04 12:43:52;;;;;;;6.25;4.97;;;;;20.70;94049.00;;;;7399800;19;20137;-76
2022/05/04 12:46:20;;;;;;;6.68;4.70;;;;;19.80;94043.00;;;;7400412;19;20606;-76
2022/05/04 12:48:56;;;;;;;8.35;5.88;;;;;19.10;94046.00;;;;7400068;19;20602;-78
2022/05/04 12:51:24;;;;;;;9.15;4.63;;;;;18.90;94043.00;;;;7399997;19;20137;-77
2022/05/04 12:53:53;;;;;;;4.60;4.20;;;;;18.90;94048.00;;;;7400020;19;20609;-77
2022/05/04 12:56:46;;;;;;;5.38;4.80;;;;;19.00;94003.00;;;;7402145;19;20595;-76
2022/05/04 12:59:18;;;;;;;4.40;3.83;;;;;21.30;93992.00;;;;7399117;19;20141;-74
2022/05/04 13:01:52;;;;;;;5.60;4.25;;;;;23.30;93991.00;;;;7401879;19;20149;-77
2022/05/04 13:04:20;;;;;;;6.38;4.57;;;;;23.90;93981.00;;;;7397888;19;20149;-76
2022/05/04 13:06:48;;;;;;;4.30;3.90;;;;;24.20;94006.00;;;;7400415;19;20137;-76
2022/05/04 13:09:22;;;;;;;5.63;3.95;;;;;22.40;94021.00;;;;7399270;19;20135;-77
2022/05/04 13:11:50;;;;;;;8.90;4.43;;;;;20.40;94032.00;;;;7399030;19;20476;-76
2022/05/04 13:14:20;;;;;;;4.72;3.83;;;;;19.50;94038.00;;;;7398228;19;20137;-76
2022/05/04 13:16:54;;;;;;;5.70;4.75;;;;;19.00;94031.00;;;;7398659;19;20133;-74
2022/05/04 13:19:36;;;;;;;6.22;5.05;;;;;18.50;94033.00;;;;7398260;19;20129;-76